sensor_id;sensor_type;location;lat;lon;timestamp;pressure;altitude;pressure_sealevel;temperature;humidity
51239;BME280;38154;47.548;18.828;2022-07-23T00:01:35;98709.03;;;22.93;48.83
51239;BME280;38154;47.548;18.828;2022-07-23T00:04:01;98703.81;;;22.92;48.78
51239;BME280;38154;47.548;18.828;2022-07-23T00:06:27;98710.16;;;22.89;48.67
51239;BME280;38154;47.548;18.828;2022-07-23T00:08:52;98706.59;;;22.89;48.67
51239;BME280;38154;47.548;18.828;2022-07-23T00:11:18;98704.84;;;22.89;48.45
51239;BME280;38154;47.548;18.828;2022-07-23T00:13:44;98703.19;;;22.87;48.47
51239;BME280;38154;47.548;18.828;2022-07-23T00:16:10;98700.59;;;22.85;48.68
51239;BME280;38154;47.548;18.828;2022-07-23T00:18:36;98699.81;;;22.83;48.88
51239;BME280;38154;47.548;18.828;2022-07-23T00:21:02;98702.63;;;22.80;48.95
51239;BME280;38154;47.548;18.828;2022-07-23T00:23:28;98699.88;;;22.82;48.75
51239;BME280;38154;47.548;18.828;2022-07-23T00:25:56;98710.53;;;22.82;48.93
51239;BME280;38154;47.548;18.828;2022-07-23T00:28:22;98712.41;;;22.79;48.48
51239;BME280;38154;47.548;18.828;2022-07-23T00:30:48;98717.78;;;22.78;48.43
51239;BME280;38154;47.548;18.828;2022-07-23T00:33:14;98712.56;;;22.76;48.92
51239;BME280;38154;47.548;18.828;2022-07-23T00:35:40;98711.22;;;22.68;49.28
51239;BME280;38154;47.548;18.828;2022-07-23T00:38:08;98713.53;;;22.56;49.54
51239;BME280;38154;47.548;18.828;2022-07-23T00:40:36;98711.41;;;22.46;49.62
51239;BME280;38154;47.548;18.828;2022-07-23T00:43:03;98717.00;;;22.39;49.67
51239;BME280;38154;47.548;18.828;2022-07-23T00:45:29;98718.81;;;22.39;49.50
51239;BME280;38154;47.548;18.828;2022-07-23T00:47:55;98713.41;;;22.40;49.61
51239;BME280;38154;47.548;18.828;2022-07-23T00:50:21;98715.91;;;22.44;49.56
51239;BME280;38154;47.548;18.828;2022-07-23T00:52:47;98713.81;;;22.50;49.45
51239;BME280;38154;47.548;18.828;2022-07-23T00:55:14;98708.50;;;22.50;49.38
51239;BME280;38154;47.548;18.828;2022-07-23T00:57:40;98709.47;;;22.49;49.42
51239;BME280;38154;47.548;18.828;2022-07-23T01:00:12;98709.53;;;22.48;49.50
51239;BME280;38154;47.548;18.828;2022-07-23T01:02:38;98701.69;;;22.45;49.63
51239;BME280;38154;47.548;18.828;2022-07-23T01:05:05;98705.28;;;22.44;49.54
51239;BME280;38154;47.548;18.828;2022-07-23T01:07:32;98701.00;;;22.41;50.16
51239;BME280;38154;47.548;18.828;2022-07-23T01:09:58;98704.66;;;22.38;50.23
51239;BME280;38154;47.548;18.828;2022-07-23T01:12:24;98700.44;;;22.34;49.92
51239;BME280;38154;47.548;18.828;2022-07-23T01:14:54;98701.50;;;22.30;49.87
51239;BME280;38154;47.548;18.828;2022-07-23T01:17:21;98706.03;;;22.28;50.07
51239;BME280;38154;47.548;18.828;2022-07-23T01:19:46;98695.50;;;22.25;50.41
51239;BME280;38154;47.548;18.828;2022-07-23T01:22:13;98693.75;;;22.26;50.39
51239;BME280;38154;47.548;18.828;2022-07-23T01:24:40;98685.09;;;22.20;50.77
51239;BME280;38154;47.548;18.828;2022-07-23T01:27:06;98688.78;;;22.18;50.61
51239;BME280;38154;47.548;18.828;2022-07-23T01:29:32;98690.59;;;22.17;50.43
51239;BME280;38154;47.548;18.828;2022-07-23T01:31:57;98695.91;;;22.17;50.58
51239;BME280;38154;47.548;18.828;2022-07-23T01:34:23;98691.63;;;22.13;50.85
51239;BME280;38154;47.548;18.828;2022-07-23T01:36:49;98690.87;;;22.11;50.96
51239;BME280;38154;47.548;18.828;2022-07-23T01:39:15;98695.25;;;22.12;50.62
51239;BME280;38154;47.548;18.828;2022-07-23T01:41:41;98693.50;;;22.11;51.28
51239;BME280;38154;47.548;18.828;2022-07-23T01:44:07;98694.59;;;22.07;51.19
51239;BME280;38154;47.548;18.828;2022-07-23T01:46:32;98701.84;;;22.03;51.43
51239;BME280;38154;47.548;18.828;2022-07-23T01:48:58;98704.72;;;21.99;51.71
51239;BME280;38154;47.548;18.828;2022-07-23T01:51:24;98693.34;;;21.95;51.68
51239;BME280;38154;47.548;18.828;2022-07-23T01:53:50;98692.50;;;21.95;51.86
51239;BME280;38154;47.548;18.828;2022-07-23T01:56:16;98694.38;;;21.93;51.73
51239;BME280;38154;47.548;18.828;2022-07-23T01:58:42;98691.78;;;21.91;51.99
51239;BME280;38154;47.548;18.828;2022-07-23T02:01:08;98691.22;;;21.84;52.21
51239;BME280;38154;47.548;18.828;2022-07-23T02:03:33;98697.09;;;22.10;50.38
51239;BME280;38154;47.548;18.828;2022-07-23T02:05:59;98688.50;;;22.24;50.96
51239;BME280;38154;47.548;18.828;2022-07-23T02:08:25;98687.34;;;22.30;50.90
51239;BME280;38154;47.548;18.828;2022-07-23T02:10:51;98691.50;;;22.35;50.19
51239;BME280;38154;47.548;18.828;2022-07-23T02:13:17;98682.63;;;22.17;51.61
51239;BME280;38154;47.548;18.828;2022-07-23T02:15:43;98693.78;;;22.05;51.88
51239;BME280;38154;47.548;18.828;2022-07-23T02:18:09;98684.63;;;21.93;52.50
51239;BME280;38154;47.548;18.828;2022-07-23T02:20:35;98692.88;;;21.87;52.96
51239;BME280;38154;47.548;18.828;2022-07-23T02:23:04;98690.37;;;21.84;52.55
51239;BME280;38154;47.548;18.828;2022-07-23T02:25:30;98698.47;;;21.81;52.92
51239;BME280;38154;47.548;18.828;2022-07-23T02:27:56;98688.91;;;21.77;53.02
51239;BME280;38154;47.548;18.828;2022-07-23T02:30:21;98692.63;;;21.73;53.11
51239;BME280;38154;47.548;18.828;2022-07-23T02:32:47;98692.84;;;21.68;53.40
51239;BME280;38154;47.548;18.828;2022-07-23T02:35:13;98694.78;;;21.64;53.61
51239;BME280;38154;47.548;18.828;2022-07-23T02:37:39;98703.66;;;21.63;53.51
51239;BME280;38154;47.548;18.828;2022-07-23T02:40:05;98708.25;;;21.60;53.86
51239;BME280;38154;47.548;18.828;2022-07-23T02:42:31;98708.69;;;21.51;54.35
51239;BME280;38154;47.548;18.828;2022-07-23T02:44:57;98709.03;;;21.41;54.71
51239;BME280;38154;47.548;18.828;2022-07-23T02:47:23;98711.03;;;21.36;55.00
51239;BME280;38154;47.548;18.828;2022-07-23T02:49:48;98701.44;;;21.34;55.05
51239;BME280;38154;47.548;18.828;2022-07-23T02:52:14;98711.16;;;21.33;55.05
51239;BME280;38154;47.548;18.828;2022-07-23T02:54:40;98704.75;;;21.39;54.65
51239;BME280;38154;47.548;18.828;2022-07-23T02:57:06;98705.72;;;21.36;54.86
51239;BME280;38154;47.548;18.828;2022-07-23T02:59:32;98708.97;;;21.43;54.56
51239;BME280;38154;47.548;18.828;2022-07-23T03:01:58;98706.44;;;21.40;54.94
51239;BME280;38154;47.548;18.828;2022-07-23T03:04:23;98701.12;;;21.40;54.92
51239;BME280;38154;47.548;18.828;2022-07-23T03:06:49;98701.84;;;21.43;55.14
51239;BME280;38154;47.548;18.828;2022-07-23T03:09:15;98697.44;;;21.44;55.30
51239;BME280;38154;47.548;18.828;2022-07-23T03:11:41;98692.06;;;21.45;54.81
51239;BME280;38154;47.548;18.828;2022-07-23T03:14:07;98694.72;;;21.45;55.18
51239;BME280;38154;47.548;18.828;2022-07-23T03:16:33;98700.78;;;21.49;54.90
51239;BME280;38154;47.548;18.828;2022-07-23T03:18:59;98701.50;;;21.53;54.91
51239;BME280;38154;47.548;18.828;2022-07-23T03:21:24;98699.56;;;21.56;55.22
51239;BME280;38154;47.548;18.828;2022-07-23T03:23:51;98700.41;;;21.57;55.23
51239;BME280;38154;47.548;18.828;2022-07-23T03:26:16;98692.38;;;21.58;54.93
51239;BME280;38154;47.548;18.828;2022-07-23T03:28:42;98688.03;;;21.57;55.03
51239;BME280;38154;47.548;18.828;2022-07-23T03:31:08;98686.16;;;21.59;55.54
51239;BME280;38154;47.548;18.828;2022-07-23T03:33:34;98691.50;;;21.78;54.98
51239;BME280;38154;47.548;18.828;2022-07-23T03:36:00;98692.78;;;21.89;54.87
51239;BME280;38154;47.548;18.828;2022-07-23T03:38:26;98689.84;;;21.95;55.37
51239;BME280;38154;47.548;18.828;2022-07-23T03:40:52;98693.28;;;21.97;55.05
51239;BME280;38154;47.548;18.828;2022-07-23T03:43:18;98686.78;;;22.04;55.44
51239;BME280;38154;47.548;18.828;2022-07-23T03:45:43;98696.25;;;22.10;55.90
51239;BME280;38154;47.548;18.828;2022-07-23T03:48:09;98695.91;;;22.17;56.16
51239;BME280;38154;47.548;18.828;2022-07-23T03:50:35;98701.78;;;22.24;56.39
51239;BME280;38154;47.548;18.828;2022-07-23T03:53:03;98696.19;;;22.30;56.74
51239;BME280;38154;47.548;18.828;2022-07-23T03:55:29;98692.25;;;22.39;56.87
51239;BME280;38154;47.548;18.828;2022-07-23T03:57:54;98695.47;;;22.46;57.36
51239;BME280;38154;47.548;18.828;2022-07-23T04:00:20;98697.59;;;22.56;56.96
51239;BME280;38154;47.548;18.828;2022-07-23T04:02:46;98700.44;;;22.71;56.66
51239;BME280;38154;47.548;18.828;2022-07-23T04:05:12;98702.78;;;22.77;56.95
51239;BME280;38154;47.548;18.828;2022-07-23T04:07:38;98700.66;;;22.84;56.54
51239;BME280;38154;47.548;18.828;2022-07-23T04:10:04;98702.88;;;22.93;56.44
51239;BME280;38154;47.548;18.828;2022-07-23T04:12:30;98699.88;;;22.99;56.50
51239;BME280;38154;47.548;18.828;2022-07-23T04:14:56;98703.44;;;23.00;57.31
51239;BME280;38154;47.548;18.828;2022-07-23T04:17:21;98699.88;;;22.99;57.68
51239;BME280;38154;47.548;18.828;2022-07-23T04:19:47;98703.84;;;23.09;59.05
51239;BME280;38154;47.548;18.828;2022-07-23T04:22:13;98695.69;;;23.12;57.77
51239;BME280;38154;47.548;18.828;2022-07-23T04:24:39;98701.09;;;23.11;57.78
51239;BME280;38154;47.548;18.828;2022-07-23T04:27:05;98699.16;;;23.14;58.52
51239;BME280;38154;47.548;18.828;2022-07-23T04:29:31;98705.94;;;23.20;58.10
51239;BME280;38154;47.548;18.828;2022-07-23T04:31:57;98709.19;;;23.43;57.40
51239;BME280;38154;47.548;18.828;2022-07-23T04:34:23;98704.63;;;23.62;56.61
51239;BME280;38154;47.548;18.828;2022-07-23T04:36:49;98712.69;;;23.78;56.32
51239;BME280;38154;47.548;18.828;2022-07-23T04:39:15;98710.31;;;23.89;56.77
51239;BME280;38154;47.548;18.828;2022-07-23T04:41:41;98709.81;;;23.99;55.90
51239;BME280;38154;47.548;18.828;2022-07-23T04:44:07;98713.34;;;24.15;56.48
51239;BME280;38154;47.548;18.828;2022-07-23T04:46:33;98706.41;;;24.29;56.37
51239;BME280;38154;47.548;18.828;2022-07-23T04:48:58;98703.56;;;24.63;55.87
51239;BME280;38154;47.548;18.828;2022-07-23T04:51:24;98713.34;;;25.09;54.68
51239;BME280;38154;47.548;18.828;2022-07-23T04:53:50;98713.13;;;25.28;54.58
51239;BME280;38154;47.548;18.828;2022-07-23T04:56:16;98708.31;;;25.49;54.86
51239;BME280;38154;47.548;18.828;2022-07-23T04:58:43;98710.88;;;25.65;53.62
51239;BME280;38154;47.548;18.828;2022-07-23T05:01:08;98709.09;;;25.80;54.56
51239;BME280;38154;47.548;18.828;2022-07-23T05:03:34;98717.50;;;26.03;53.65
51239;BME280;38154;47.548;18.828;2022-07-23T05:06:00;98714.72;;;26.19;53.91
51239;BME280;38154;47.548;18.828;2022-07-23T05:08:26;98707.72;;;26.58;53.05
51239;BME280;38154;47.548;18.828;2022-07-23T05:10:52;98703.59;;;26.94;52.66
51239;BME280;38154;47.548;18.828;2022-07-23T05:13:18;98708.50;;;27.27;51.59
51239;BME280;38154;47.548;18.828;2022-07-23T05:15:44;98705.44;;;27.33;51.86
51239;BME280;38154;47.548;18.828;2022-07-23T05:18:10;98704.91;;;27.54;51.71
51239;BME280;38154;47.548;18.828;2022-07-23T05:20:36;98713.22;;;27.88;48.13
51239;BME280;38154;47.548;18.828;2022-07-23T05:23:02;98709.47;;;28.16;44.85
51239;BME280;38154;47.548;18.828;2022-07-23T05:25:27;98720.69;;;28.34;44.33
51239;BME280;38154;47.548;18.828;2022-07-23T05:27:53;98711.50;;;28.49;44.44
51239;BME280;38154;47.548;18.828;2022-07-23T05:30:19;98705.37;;;28.60;45.54
51239;BME280;38154;47.548;18.828;2022-07-23T05:32:45;98715.13;;;28.85;43.53
51239;BME280;38154;47.548;18.828;2022-07-23T05:35:11;98700.06;;;29.07;44.86
51239;BME280;38154;47.548;18.828;2022-07-23T05:37:36;98708.88;;;29.33;43.50
51239;BME280;38154;47.548;18.828;2022-07-23T05:40:03;98718.56;;;29.70;41.69
51239;BME280;38154;47.548;18.828;2022-07-23T05:42:29;98717.12;;;30.00;41.63
51239;BME280;38154;47.548;18.828;2022-07-23T05:44:54;98721.41;;;30.36;40.76
51239;BME280;38154;47.548;18.828;2022-07-23T05:47:20;98728.63;;;30.47;40.65
51239;BME280;38154;47.548;18.828;2022-07-23T05:49:46;98728.97;;;30.54;41.35
51239;BME280;38154;47.548;18.828;2022-07-23T05:52:12;98724.06;;;30.59;41.26
51239;BME280;38154;47.548;18.828;2022-07-23T05:54:38;98728.87;;;30.76;40.23
51239;BME280;38154;47.548;18.828;2022-07-23T05:57:04;98714.75;;;30.95;35.58
51239;BME280;38154;47.548;18.828;2022-07-23T05:59:30;98709.75;;;31.23;36.01
51239;BME280;38154;47.548;18.828;2022-07-23T06:01:55;98712.31;;;31.24;34.01
51239;BME280;38154;47.548;18.828;2022-07-23T06:04:21;98714.53;;;31.40;34.04
51239;BME280;38154;47.548;18.828;2022-07-23T06:06:47;98712.50;;;31.54;34.47
51239;BME280;38154;47.548;18.828;2022-07-23T06:09:13;98708.72;;;31.56;33.42
51239;BME280;38154;47.548;18.828;2022-07-23T06:11:40;98703.75;;;31.83;33.48
51239;BME280;38154;47.548;18.828;2022-07-23T06:14:06;98707.28;;;32.14;33.32
51239;BME280;38154;47.548;18.828;2022-07-23T06:16:32;98705.37;;;32.45;32.80
51239;BME280;38154;47.548;18.828;2022-07-23T06:18:58;98705.47;;;33.14;32.53
51239;BME280;38154;47.548;18.828;2022-07-23T06:21:24;98702.41;;;34.03;31.48
51239;BME280;38154;47.548;18.828;2022-07-23T06:23:49;98710.84;;;35.45;28.11
51239;BME280;38154;47.548;18.828;2022-07-23T06:26:15;98706.94;;;37.27;25.71
51239;BME280;38154;47.548;18.828;2022-07-23T06:28:41;98711.53;;;38.55;23.96
51239;BME280;38154;47.548;18.828;2022-07-23T06:31:07;98707.75;;;39.48;23.09
51239;BME280;38154;47.548;18.828;2022-07-23T06:33:33;98705.66;;;40.03;21.85
51239;BME280;38154;47.548;18.828;2022-07-23T06:35:59;98720.16;;;40.85;21.03
51239;BME280;38154;47.548;18.828;2022-07-23T06:38:25;98709.34;;;41.70;19.80
51239;BME280;38154;47.548;18.828;2022-07-23T06:40:51;98711.94;;;42.75;18.28
51239;BME280;38154;47.548;18.828;2022-07-23T06:43:17;98721.50;;;43.66;17.42
51239;BME280;38154;47.548;18.828;2022-07-23T06:45:43;98723.88;;;43.42;17.81
51239;BME280;38154;47.548;18.828;2022-07-23T06:48:09;98716.44;;;43.96;17.23
51239;BME280;38154;47.548;18.828;2022-07-23T06:50:34;98710.75;;;44.43;16.68
51239;BME280;38154;47.548;18.828;2022-07-23T06:53:00;98719.41;;;43.75;16.85
51239;BME280;38154;47.548;18.828;2022-07-23T06:55:26;98718.25;;;44.68;16.42
51239;BME280;38154;47.548;18.828;2022-07-23T06:57:52;98713.13;;;44.33;16.38
51239;BME280;38154;47.548;18.828;2022-07-23T07:00:18;98719.38;;;44.01;16.59
51239;BME280;38154;47.548;18.828;2022-07-23T07:02:44;98713.72;;;44.41;16.75
51239;BME280;38154;47.548;18.828;2022-07-23T07:05:10;98720.56;;;45.09;15.68
51239;BME280;38154;47.548;18.828;2022-07-23T07:07:36;98706.91;;;45.46;15.32
51239;BME280;38154;47.548;18.828;2022-07-23T07:10:03;98714.38;;;45.14;15.47
51239;BME280;38154;47.548;18.828;2022-07-23T07:12:29;98705.00;;;45.90;14.69
51239;BME280;38154;47.548;18.828;2022-07-23T07:14:55;98709.53;;;45.34;15.18
51239;BME280;38154;47.548;18.828;2022-07-23T07:17:22;98697.91;;;45.32;15.06
51239;BME280;38154;47.548;18.828;2022-07-23T07:19:48;98707.44;;;45.36;15.23
51239;BME280;38154;47.548;18.828;2022-07-23T07:22:14;98702.16;;;45.97;14.48
51239;BME280;38154;47.548;18.828;2022-07-23T07:24:40;98714.34;;;46.08;14.58
51239;BME280;38154;47.548;18.828;2022-07-23T07:27:06;98714.22;;;45.09;15.02
51239;BME280;38154;47.548;18.828;2022-07-23T07:29:32;98709.22;;;44.92;15.10
51239;BME280;38154;47.548;18.828;2022-07-23T07:31:57;98707.47;;;45.05;14.95
51239;BME280;38154;47.548;18.828;2022-07-23T07:34:23;98711.41;;;44.83;15.12
51239;BME280;38154;47.548;18.828;2022-07-23T07:36:50;98705.63;;;44.60;15.42
51239;BME280;38154;47.548;18.828;2022-07-23T07:39:15;98703.59;;;45.63;14.58
51239;BME280;38154;47.548;18.828;2022-07-23T07:41:41;98702.81;;;45.81;14.54
51239;BME280;38154;47.548;18.828;2022-07-23T07:44:07;98698.66;;;45.46;15.14
51239;BME280;38154;47.548;18.828;2022-07-23T07:46:33;98700.94;;;45.24;15.20
51239;BME280;38154;47.548;18.828;2022-07-23T07:48:59;98702.22;;;44.96;15.73
51239;BME280;38154;47.548;18.828;2022-07-23T07:51:26;98695.66;;;44.66;15.58
51239;BME280;38154;47.548;18.828;2022-07-23T07:53:52;98714.66;;;45.06;15.43
51239;BME280;38154;47.548;18.828;2022-07-23T07:56:18;98711.56;;;44.57;16.17
51239;BME280;38154;47.548;18.828;2022-07-23T07:58:44;98706.00;;;44.25;16.57
51239;BME280;38154;47.548;18.828;2022-07-23T08:01:10;98711.22;;;43.48;16.12
51239;BME280;38154;47.548;18.828;2022-07-23T08:03:36;98704.97;;;44.58;15.46
51239;BME280;38154;47.548;18.828;2022-07-23T08:06:02;98701.38;;;44.64;15.61
51239;BME280;38154;47.548;18.828;2022-07-23T08:08:27;98704.19;;;44.82;15.28
51239;BME280;38154;47.548;18.828;2022-07-23T08:10:53;98707.59;;;45.42;15.29
51239;BME280;38154;47.548;18.828;2022-07-23T08:13:19;98708.09;;;46.19;14.56
51239;BME280;38154;47.548;18.828;2022-07-23T08:15:45;98707.53;;;46.29;14.27
51239;BME280;38154;47.548;18.828;2022-07-23T08:18:11;98705.09;;;45.59;14.20
51239;BME280;38154;47.548;18.828;2022-07-23T08:20:37;98714.03;;;46.53;13.90
51239;BME280;38154;47.548;18.828;2022-07-23T08:23:05;98708.38;;;45.92;14.36
51239;BME280;38154;47.548;18.828;2022-07-23T08:25:35;98706.31;;;45.88;14.75
51239;BME280;38154;47.548;18.828;2022-07-23T08:28:03;98702.59;;;46.19;14.72
51239;BME280;38154;47.548;18.828;2022-07-23T08:30:31;98707.19;;;46.56;14.00
51239;BME280;38154;47.548;18.828;2022-07-23T08:33:00;98709.97;;;46.37;13.92
51239;BME280;38154;47.548;18.828;2022-07-23T08:35:35;98707.81;;;46.58;14.19
51239;BME280;38154;47.548;18.828;2022-07-23T08:38:03;98712.41;;;47.18;13.77
51239;BME280;38154;47.548;18.828;2022-07-23T08:40:34;98712.78;;;46.49;14.51
51239;BME280;38154;47.548;18.828;2022-07-23T08:43:04;98711.56;;;46.63;14.44
51239;BME280;38154;47.548;18.828;2022-07-23T08:45:30;98706.66;;;46.47;13.75
51239;BME280;38154;47.548;18.828;2022-07-23T08:47:57;98705.56;;;45.81;14.07
51239;BME280;38154;47.548;18.828;2022-07-23T08:50:26;98707.63;;;46.71;13.57
51239;BME280;38154;47.548;18.828;2022-07-23T08:52:53;98704.25;;;47.11;13.14
51239;BME280;38154;47.548;18.828;2022-07-23T08:55:21;98694.59;;;46.29;13.47
51239;BME280;38154;47.548;18.828;2022-07-23T08:57:48;98701.41;;;46.88;13.33
51239;BME280;38154;47.548;18.828;2022-07-23T09:00:16;98695.47;;;46.60;14.01
51239;BME280;38154;47.548;18.828;2022-07-23T09:02:44;98704.72;;;46.47;14.11
51239;BME280;38154;47.548;18.828;2022-07-23T09:05:11;98699.72;;;48.00;13.28
51239;BME280;38154;47.548;18.828;2022-07-23T09:10:30;98697.97;;;47.70;12.83
51239;BME280;38154;47.548;18.828;2022-07-23T09:12:57;98688.72;;;47.76;13.05
51239;BME280;38154;47.548;18.828;2022-07-23T09:15:22;98685.66;;;46.95;13.29
51239;BME280;38154;47.548;18.828;2022-07-23T09:17:48;98693.62;;;47.50;12.71
51239;BME280;38154;47.548;18.828;2022-07-23T09:20:16;98688.72;;;47.41;12.81
51239;BME280;38154;47.548;18.828;2022-07-23T09:22:46;98692.97;;;47.13;13.13
51239;BME280;38154;47.548;18.828;2022-07-23T09:25:16;98689.53;;;47.53;13.22
51239;BME280;38154;47.548;18.828;2022-07-23T09:27:54;98680.41;;;47.76;13.15
51239;BME280;38154;47.548;18.828;2022-07-23T09:30:25;98687.00;;;47.51;13.09
51239;BME280;38154;47.548;18.828;2022-07-23T09:33:14;98687.19;;;46.60;13.81
51239;BME280;38154;47.548;18.828;2022-07-23T09:35:53;98675.72;;;45.52;14.04
51239;BME280;38154;47.548;18.828;2022-07-23T09:38:21;98679.34;;;46.08;14.07
51239;BME280;38154;47.548;18.828;2022-07-23T09:41:08;98679.03;;;46.35;13.76
51239;BME280;38154;47.548;18.828;2022-07-23T09:43:35;98684.41;;;46.11;14.33
51239;BME280;38154;47.548;18.828;2022-07-23T09:46:21;98681.34;;;45.83;13.98
51239;BME280;38154;47.548;18.828;2022-07-23T09:48:49;98680.03;;;45.16;14.65
51239;BME280;38154;47.548;18.828;2022-07-23T09:51:17;98672.81;;;44.97;14.67
51239;BME280;38154;47.548;18.828;2022-07-23T09:53:47;98685.31;;;44.54;14.80
51239;BME280;38154;47.548;18.828;2022-07-23T09:56:13;98672.09;;;44.31;15.04
51239;BME280;38154;47.548;18.828;2022-07-23T09:58:41;98677.72;;;43.91;15.25
51239;BME280;38154;47.548;18.828;2022-07-23T10:01:18;98668.53;;;43.45;16.01
51239;BME280;38154;47.548;18.828;2022-07-23T10:03:45;98673.81;;;43.20;16.18
51239;BME280;38154;47.548;18.828;2022-07-23T10:06:12;98660.31;;;43.39;15.91
51239;BME280;38154;47.548;18.828;2022-07-23T10:08:44;98659.69;;;43.43;16.12
51239;BME280;38154;47.548;18.828;2022-07-23T10:11:13;98656.72;;;43.51;15.87
51239;BME280;38154;47.548;18.828;2022-07-23T10:13:40;98663.88;;;43.26;16.27
51239;BME280;38154;47.548;18.828;2022-07-23T10:16:15;98656.50;;;43.53;16.06
51239;BME280;38154;47.548;18.828;2022-07-23T10:18:42;98653.72;;;43.60;16.19
51239;BME280;38154;47.548;18.828;2022-07-23T10:21:08;98656.34;;;44.58;14.95
51239;BME280;38154;47.548;18.828;2022-07-23T10:23:40;98648.34;;;45.32;14.34
51239;BME280;38154;47.548;18.828;2022-07-23T10:26:24;98642.94;;;45.00;14.42
51239;BME280;38154;47.548;18.828;2022-07-23T10:35:29;98648.00;;;44.72;14.06
51239;BME280;38154;47.548;18.828;2022-07-23T10:38:02;98640.91;;;45.14;14.38
51239;BME280;38154;47.548;18.828;2022-07-23T10:40:32;98630.53;;;46.27;13.30
51239;BME280;38154;47.548;18.828;2022-07-23T10:42:59;98632.66;;;46.44;12.80
51239;BME280;38154;47.548;18.828;2022-07-23T10:45:36;98628.97;;;46.01;13.38
51239;BME280;38154;47.548;18.828;2022-07-23T10:48:25;98624.22;;;45.53;14.38
51239;BME280;38154;47.548;18.828;2022-07-23T10:51:10;98632.09;;;46.23;13.45
51239;BME280;38154;47.548;18.828;2022-07-23T10:56:50;98624.25;;;45.90;13.17
51239;BME280;38154;47.548;18.828;2022-07-23T10:59:29;98622.59;;;44.70;13.92
51239;BME280;38154;47.548;18.828;2022-07-23T11:02:24;98620.56;;;44.26;14.11
51239;BME280;38154;47.548;18.828;2022-07-23T11:04:51;98608.69;;;43.81;14.87
51239;BME280;38154;47.548;18.828;2022-07-23T11:07:18;98605.16;;;43.53;14.67
51239;BME280;38154;47.548;18.828;2022-07-23T11:09:44;98601.19;;;42.83;15.92
51239;BME280;38154;47.548;18.828;2022-07-23T11:17:36;98586.16;;;43.52;15.50
51239;BME280;38154;47.548;18.828;2022-07-23T11:25:13;98590.78;;;41.83;16.80
51239;BME280;38154;47.548;18.828;2022-07-23T11:27:42;98584.22;;;41.70;17.05
51239;BME280;38154;47.548;18.828;2022-07-23T11:30:36;98580.66;;;41.35;17.03
51239;BME280;38154;47.548;18.828;2022-07-23T11:35:34;98579.19;;;41.74;17.47
51239;BME280;38154;47.548;18.828;2022-07-23T11:38:06;98578.38;;;42.55;16.42
51239;BME280;38154;47.548;18.828;2022-07-23T11:40:33;98579.47;;;41.99;16.82
51239;BME280;38154;47.548;18.828;2022-07-23T11:43:09;98578.34;;;41.74;16.92
51239;BME280;38154;47.548;18.828;2022-07-23T11:45:44;98568.97;;;41.61;16.75
51239;BME280;38154;47.548;18.828;2022-07-23T11:50:43;98556.84;;;41.70;16.52
51239;BME280;38154;47.548;18.828;2022-07-23T11:53:09;98551.16;;;41.30;16.84
51239;BME280;38154;47.548;18.828;2022-07-23T11:55:35;98537.03;;;40.98;16.95
51239;BME280;38154;47.548;18.828;2022-07-23T11:58:01;98538.34;;;41.09;17.82
51239;BME280;38154;47.548;18.828;2022-07-23T12:00:29;98535.56;;;40.74;17.72
51239;BME280;38154;47.548;18.828;2022-07-23T12:02:57;98533.44;;;40.27;18.29
51239;BME280;38154;47.548;18.828;2022-07-23T12:05:30;98532.25;;;39.78;18.91
51239;BME280;38154;47.548;18.828;2022-07-23T12:07:57;98534.38;;;39.16;19.31
51239;BME280;38154;47.548;18.828;2022-07-23T12:10:43;98536.06;;;39.32;19.41
51239;BME280;38154;47.548;18.828;2022-07-23T12:13:17;98530.19;;;39.80;19.19
51239;BME280;38154;47.548;18.828;2022-07-23T12:15:46;98526.44;;;39.66;19.59
51239;BME280;38154;47.548;18.828;2022-07-23T12:18:16;98528.25;;;39.44;19.42
51239;BME280;38154;47.548;18.828;2022-07-23T12:20:44;98519.69;;;39.47;19.42
51239;BME280;38154;47.548;18.828;2022-07-23T12:23:12;98515.97;;;39.84;19.46
51239;BME280;38154;47.548;18.828;2022-07-23T12:25:41;98515.56;;;39.87;19.11
51239;BME280;38154;47.548;18.828;2022-07-23T12:28:12;98513.25;;;39.69;20.02
51239;BME280;38154;47.548;18.828;2022-07-23T12:30:44;98519.97;;;39.37;19.25
51239;BME280;38154;47.548;18.828;2022-07-23T12:33:13;98502.16;;;38.82;19.61
51239;BME280;38154;47.548;18.828;2022-07-23T12:35:41;98504.69;;;38.98;20.77
51239;BME280;38154;47.548;18.828;2022-07-23T12:38:11;98498.31;;;38.91;20.24
51239;BME280;38154;47.548;18.828;2022-07-23T12:40:52;98491.72;;;38.47;20.46
51239;BME280;38154;47.548;18.828;2022-07-23T12:45:49;98484.56;;;37.77;22.23
51239;BME280;38154;47.548;18.828;2022-07-23T12:48:29;98480.16;;;37.76;22.72
51239;BME280;38154;47.548;18.828;2022-07-23T12:51:01;98481.56;;;37.72;22.75
51239;BME280;38154;47.548;18.828;2022-07-23T12:58:40;98494.75;;;38.06;22.40
51239;BME280;38154;47.548;18.828;2022-07-23T13:01:06;98484.00;;;38.13;22.66
51239;BME280;38154;47.548;18.828;2022-07-23T13:03:38;98484.50;;;38.54;21.92
51239;BME280;38154;47.548;18.828;2022-07-23T13:06:08;98490.53;;;39.18;21.03
51239;BME280;38154;47.548;18.828;2022-07-23T13:08:35;98473.91;;;39.79;20.08
51239;BME280;38154;47.548;18.828;2022-07-23T13:11:03;98480.38;;;40.14;19.95
51239;BME280;38154;47.548;18.828;2022-07-23T13:13:33;98472.69;;;40.24;19.80
51239;BME280;38154;47.548;18.828;2022-07-23T13:15:59;98464.81;;;40.36;19.91
51239;BME280;38154;47.548;18.828;2022-07-23T13:18:27;98459.94;;;40.10;19.96
51239;BME280;38154;47.548;18.828;2022-07-23T13:20:53;98456.72;;;39.85;20.37
51239;BME280;38154;47.548;18.828;2022-07-23T13:23:19;98458.06;;;39.38;20.83
51239;BME280;38154;47.548;18.828;2022-07-23T13:25:46;98458.06;;;39.53;20.58
51239;BME280;38154;47.548;18.828;2022-07-23T13:28:13;98457.31;;;38.99;21.32